CheckWX is a tool to help pilots better visualize weather data.  It is not intended as a substitute for an official pre-flight weather briefing.

17:07:09 UTC

KORD TAF
Chicago O'hare International Airport
Chicago, Illinois, USA
KORD 111514Z 1115/1218 26010KT P6SM -SN BKN045 OVC080 FM111630 28010KT P6SM FEW250 FM112300 33005KT P6SM FEW250 FM120200 13004KT P6SM SCT100 BKN250 FM120900 15010KT P6SM BKN250 FM121600 18016G28KT P6SM BKN250

Dec-11@
15:00 UTC

Dec-11 @ 15:00 UTC

Dec-11@
16:30 UTC

Dec-11 @ 16:30 UTC

KORD 111514Z 1115/1218 26010KT P6SM -SN BKN045 OVC080

Expired

Wind
  • 260° at 10 KTS
Conditions
Light Snow
Cloud Levels
  • Broken at 4,500' AGL
  • Overcast at 8,000' AGL

Dec-11@
16:30 UTC

Dec-11 @ 16:30 UTC

Dec-11@
23:00 UTC

Dec-11 @ 23:00 UTC

FM111630 28010KT P6SM FEW250

From

From Standard forecast or significant change

Wind
  • 280° at 10 KTS
Cloud Levels
  • Few at 25,000' AGL

Dec-11@
23:00 UTC

Dec-11 @ 23:00 UTC

Dec-12@
02:00 UTC

Dec-12 @ 02:00 UTC

FM112300 33005KT P6SM FEW250

From

From Standard forecast or significant change

Wind
  • 330° at 5 KTS
Cloud Levels
  • Few at 25,000' AGL

Dec-12@
02:00 UTC

Dec-12 @ 02:00 UTC

Dec-12@
09:00 UTC

Dec-12 @ 09:00 UTC

FM120200 13004KT P6SM SCT100 BKN250

From

From Standard forecast or significant change

Wind
  • 130° at 4 KTS
Cloud Levels
  • Scattered at 10,000' AGL
  • Broken at 25,000' AGL

Dec-12@
09:00 UTC

Dec-12 @ 09:00 UTC

Dec-12@
16:00 UTC

Dec-12 @ 16:00 UTC

FM120900 15010KT P6SM BKN250

From

From Standard forecast or significant change

Wind
  • 150° at 10 KTS
Cloud Levels
  • Broken at 25,000' AGL

Dec-12@
16:00 UTC

Dec-12 @ 16:00 UTC

Dec-12@
18:00 UTC

Dec-12 @ 18:00 UTC

FM121600 18016G28KT P6SM BKN250

From

From Standard forecast or significant change

Wind
  • 180° at 16 KTS
  • {Gusting to 28 KTS
Cloud Levels
  • Broken at 25,000' AGL